Pagrindinis puslapis
METAR-TAF:

METAR-TAF

Oro uostai :

Clark's Point, Aliaska, Jungtinės Amerikos Valstijos

platuma: 58-50-01N, ilguma: 158-31-46W, Aukštis: 24 m

Dabartinis oras

Ataskaita buvo paskelbta 33 minutes, ne 04:56 UTC
Vėjas 11 kt iš Vakarų/Pietvakarių
Temperatūra 18°C
Drėgmė 68%
Slėgis 1010 hPa
Matomumas: 16.1 km
Giedras dangus

METAR: PFCL 110456Z AUTO 24011KT 10SM CLR 18/12 A2983 RMK AO2 SLP095 T01780117 TSNO

Laikas: 21:29 (05:29 UTC)


TAF: trūkstamas

Orai ataskaitas ir orų prognozės (METAR, TAF).

turimą stotys yra geltonos ir raudonos taškus žemėlapyje.

Perkelti pele per norėdami pamatyti stoties vardą.

Tada spustelėkite, norėdami matyti oro stebėjimo ir prognozės.

Norėdami pakeisti žemėlapį: spustelėkite ant žalios mygtukų su juodo kryžiaus žemyn,; žalią mygtuką su brūkšneliu, jei norite nutolinti; arba žalių rodyklių gretimoms žemėlapius.


METAR-TAF: